• Join FlightAware (Why Join?)
  • Login
  • US Flag 
01:20PM EDT


 

Airport Tracker/Info


-or-


 

Live Flight TrackerFlight Track Log ✈ DAL6044 ✈ 27-Apr-2013 ✈ KLGA - KCLE

Flight Track Log - Related Links

Times and Time Zones

All times are in EDT time to prevent confusion due to time zone crossing. See the DAL6044 flight status page for this flight to view local times or setup timezone preferences in your user account.

Time Position Orientation Groundspeed Altitude Reporting Facility
EDT Latitude Longitude Course Direction KTS MPH feet Rate Location/Type
04:26PM 40.8333 -73.8833 282° West 216 249 2,100  Level New York TRACON
04:27PM 40.9000 -73.9000 349° North 241 277 5,500 3,120 Climbing New York TRACON
04:28PM 40.9000 -73.9833 270° West 262 302 8,400 2,640 Climbing New York TRACON
04:29PM 40.8300 -74.3633 277° West  Level FlightAware Approximate
04:29PM 40.9000 -74.1000 270° West 282 325 10,800  Level New York TRACON
04:30PM 40.8399 -74.4913 275° West  Level FlightAware Approximate
04:30PM 40.9000 -74.2167 270° West 335 386 11,600  Level New York TRACON
04:31PM 40.8490 -74.6195 275° West  Level FlightAware Approximate
04:32PM 40.8633 -74.7462 282° West  Level FlightAware Approximate
04:32PM 40.9061 -74.3897 273° West 361 415 13,300  Level New York Center
04:33PM 40.9097 -74.5408 272° West 372 428 14,800 1,380 Climbing New York Center
04:34PM 40.9100 -74.6617 270° West 372 428 16,100 1,140 Climbing New York Center
04:35PM 40.8903 -74.8117 260° West 375 432 17,100 900 Climbing New York Center
04:36PM 40.8686 -74.9558 259° West 395 455 18,000 780 Climbing New York Center
04:37PM 40.8497 -75.0808 259° West 395 455 18,700 720 Climbing New York Center
04:38PM 40.8278 -75.2219 258° West 395 455 19,500 780 Climbing New York Center
04:39PM 40.8033 -75.3683 258° West 400 460 20,300 840 Climbing New York Center
04:40PM 40.7811 -75.5122 259° West 410 472 21,200 840 Climbing New York Center
04:41PM 40.7561 -75.6611 258° West 410 472 22,100 780 Climbing New York Center
04:42PM 40.7333 -75.8100 259° West 410 472 22,900 840 Climbing New York Center
04:43PM 40.7100 -75.9589 258° West 410 472 23,800 840 Climbing New York Center
04:44PM 40.6869 -76.1078 259° West 410 472 24,600 840 Climbing New York Center
04:45PM 40.6947 -76.2536 274° West 411 473 25,500 840 Climbing New York Center
04:46PM 40.7172 -76.3950 282° West 400 460 26,300 780 Climbing New York Center
04:47PM 40.7439 -76.5369 284° West 400 460 27,100 720 Climbing New York Center
04:48PM 40.7642 -76.6756 281° West 395 455 27,800 420 Climbing New York Center
04:49PM 40.7861 -76.8172 282° West 395 455 28,000 60 Climbing New York Center
04:50PM 40.8078 -76.9619 281° West 395 455 28,000  Level New York Center
04:51PM 40.8317 -77.1039 283° West 395 455 28,000  Level New York Center
04:52PM 40.8567 -77.2544 282° West 401 461 28,000  Level New York Center
04:53PM 40.8814 -77.4133 282° West 406 467 28,000  Level New York Center
04:54PM 40.9039 -77.5639 281° West 406 467 28,000  Level New York Center
04:55PM 40.9247 -77.7114 281° West 413 475 28,000  Level New York Center
04:57PM 40.9681 -78.0119 281° West 426 490 28,000  Level Cleveland Center
04:58PM 40.9922 -78.1622 282° West 426 490 28,000  Level Cleveland Center
04:59PM 41.0183 -78.3264 282° West 426 490 28,000  Level Cleveland Center
05:00PM 41.0400 -78.4744 281° West 426 490 28,000 -480 Level Cleveland Center
05:01PM 41.0592 -78.6086 281° West 426 490 27,100 -1,020 Descending Cleveland Center
05:02PM 41.0806 -78.7650 280° West 426 490 26,000 -1,080 Descending Cleveland Center
05:03PM 41.1036 -78.9161 281° West 426 490 25,000 -960 Descending Cleveland Center
05:04PM 41.1247 -79.0808 280° West 426 490 24,100 -540 Descending Cleveland Center
05:05PM 41.1408 -79.2183 279° West 426 490 24,000 -60 Descending Cleveland Center
05:06PM 41.1636 -79.3722 281° West 426 490 24,000  Level Cleveland Center
05:07PM 41.1839 -79.5236 280° West 426 490 24,000  Level Cleveland Center
05:08PM 41.2039 -79.6806 280° West 426 490 24,000  Level Cleveland Center
05:09PM 41.2239 -79.8322 280° West 426 490 24,000  Level Cleveland Center
05:10PM 41.2433 -79.9894 279° West 426 490 24,000  Level Cleveland Center
05:11PM 41.2650 -80.1439 281° West 426 490 24,000 -660 Level Cleveland Center
05:12PM 41.2842 -80.2958 280° West 426 490 22,700 -1,380 Descending Cleveland Center
05:13PM 41.3053 -80.4669 279° West 426 490 21,300 -1,740 Descending Cleveland Center
05:14PM 41.3242 -80.6164 280° West 421 484 19,300 -2,460 Descending Cleveland Center
05:15PM 41.3594 -80.7547 289° West 410 472 16,400 -3,000 Descending Cleveland Center
05:16PM 41.4092 -80.8822 298° West 397 457 13,400 -3,000 Descending Cleveland Center
05:17PM 41.4486 -80.9847 297° West 377 434 10,900 -1,740 Descending Cleveland Center
05:18PM 41.5000 -81.1236 296° West 365 420 10,000 -660 Descending Cleveland Center
05:18PM 41.5083 -81.1517 292° West 360 414 10,000  Level Cleveland Center
05:19PM 41.5014 -81.2706 266° West 357 411 10,000  Level Cleveland Center
05:20PM 41.4881 -81.3786 261° West 345 397 10,000  Level Cleveland Center
05:21PM 41.4686 -81.5031 258° West 350 403 10,000  Level Cleveland Center
05:22PM 41.4342 -81.6217 249° West 303 349 10,000 -660 Level Cleveland Center
05:23PM 41.4083 -81.6961 245° Southwest 257 296 8,800 -1,860 Descending Cleveland Center
05:24PM 41.3700 -81.7922 242° Southwest 274 315 6,500 -1,440 Descending Cleveland Center
05:25PM 41.3294 -81.8578 231° Southwest 229 264 6,000 -1,020 Descending Cleveland Center
05:26PM 41.2933 -81.9236 234° Southwest 218 251 4,600 -1,560 Descending Cleveland Center
05:27PM 41.3325 -81.9714 318° Northwest 240 276 2,900 -1,680 Descending Cleveland Center